createdAt,value
2023-04-23T00:00:05.426Z,3.60
2023-04-23T00:00:17.216Z,3.60
2023-04-23T00:00:27.958Z,3.90
2023-04-23T00:00:40.349Z,4.10
2023-04-23T00:00:52.922Z,4.20
2023-04-23T00:01:04.973Z,3.90
2023-04-23T00:01:15.736Z,3.90
2023-04-23T00:01:28.149Z,3.90
2023-04-23T00:01:39.850Z,3.70
2023-04-23T00:01:51.566Z,3.90
2023-04-23T00:02:04.104Z,3.90
2023-04-23T00:02:16.659Z,3.80
2023-04-23T00:02:27.563Z,3.80
2023-04-23T00:02:40.352Z,3.70
2023-04-23T00:02:52.643Z,3.60
2023-04-23T00:03:04.631Z,4.00
2023-04-23T00:03:15.540Z,3.90
2023-04-23T00:03:28.922Z,4.00
2023-04-23T00:03:41.578Z,4.00
2023-04-23T00:03:52.576Z,4.00
2023-04-23T00:04:03.512Z,3.90
2023-04-23T00:04:14.450Z,4.00
2023-04-23T00:04:27.125Z,3.90
2023-04-23T00:04:39.330Z,4.40
2023-04-23T00:04:50.257Z,4.40
2023-04-23T00:05:04.591Z,4.30
2023-04-23T00:05:18.033Z,4.00
2023-04-23T00:05:28.850Z,4.00
2023-04-23T00:05:43.057Z,4.20
2023-04-23T00:05:55.517Z,4.00
2023-04-23T00:06:07.940Z,4.10
2023-04-23T00:06:18.656Z,4.10
2023-04-23T00:06:30.410Z,3.90
2023-04-23T00:06:42.877Z,4.00
2023-04-23T00:06:54.618Z,4.20
2023-04-23T00:07:05.320Z,4.10
2023-04-23T00:07:17.223Z,4.10
2023-04-23T00:07:27.932Z,4.00
2023-04-23T00:07:40.168Z,4.10
2023-04-23T00:07:50.884Z,3.90
2023-04-23T00:08:01.628Z,3.80
2023-04-23T00:08:12.449Z,4.20
2023-04-23T00:08:23.138Z,3.90
2023-04-23T00:08:35.116Z,4.30
2023-04-23T00:08:45.863Z,4.20
2023-04-23T00:08:58.556Z,4.00
2023-04-23T00:09:09.509Z,4.10
2023-04-23T00:09:20.261Z,5.00
2023-04-23T00:09:31.002Z,5.40
2023-04-23T00:09:41.684Z,5.70
2023-04-23T00:09:52.469Z,5.70
2023-04-23T00:10:03.148Z,5.90
2023-04-23T00:10:13.986Z,5.60
2023-04-23T00:10:24.668Z,5.50
2023-04-23T00:10:37.113Z,5.20
2023-04-23T00:10:47.917Z,5.10
2023-04-23T00:10:58.599Z,5.20
2023-04-23T00:11:09.292Z,5.70
2023-04-23T00:11:20.962Z,6.10
2023-04-23T00:11:32.667Z,6.60
2023-04-23T00:11:43.377Z,7.00
2023-04-23T00:11:55.770Z,7.50
2023-04-23T00:12:07.455Z,7.50
2023-04-23T00:12:19.865Z,7.30
2023-04-23T00:12:30.593Z,7.30
2023-04-23T00:12:41.329Z,7.80
2023-04-23T00:12:53.555Z,8.50
2023-04-23T00:13:05.973Z,8.10
2023-04-23T00:13:16.666Z,7.50
2023-04-23T00:13:27.408Z,7.80
2023-04-23T00:13:38.113Z,8.20
2023-04-23T00:13:48.867Z,8.80
2023-04-23T00:13:59.582Z,8.50
2023-04-23T00:14:10.300Z,8.80
2023-04-23T00:14:21.046Z,8.80
2023-04-23T00:14:31.795Z,9.40
2023-04-23T00:14:43.735Z,9.30
2023-04-23T00:14:54.475Z,9.40
2023-04-23T00:15:06.151Z,9.20
2023-04-23T00:15:17.854Z,9.10
2023-04-23T00:15:28.564Z,9.10
2023-04-23T00:15:39.310Z,9.40
2023-04-23T00:15:49.987Z,9.80
2023-04-23T00:16:01.686Z,9.50
2023-04-23T00:16:14.379Z,9.90
2023-04-23T00:16:26.794Z,9.90
2023-04-23T00:16:37.542Z,9.60
2023-04-23T00:16:48.201Z,10.10
2023-04-23T00:17:00.601Z,10.00
2023-04-23T00:17:13.043Z,10.20
2023-04-23T00:17:23.811Z,10.40
2023-04-23T00:17:34.533Z,10.70
2023-04-23T00:17:45.283Z,11.20
2023-04-23T00:17:56.009Z,11.00
2023-04-23T00:18:06.720Z,10.80
2023-04-23T00:18:19.131Z,10.50
2023-04-23T00:18:29.871Z,10.50
2023-04-23T00:18:40.651Z,10.50
2023-04-23T00:18:51.362Z,11.00
2023-04-23T00:19:02.120Z,10.80
2023-04-23T00:19:13.862Z,10.80
2023-04-23T00:19:26.263Z,11.10
2023-04-23T00:19:39.445Z,12.10
2023-04-23T00:19:51.563Z,12.10
2023-04-23T00:20:02.328Z,12.00
2023-04-23T00:20:13.023Z,12.40
2023-04-23T00:20:23.723Z,12.60
2023-04-23T00:20:36.131Z,12.90
2023-04-23T00:20:47.784Z,12.60
2023-04-23T00:20:58.494Z,12.50
2023-04-23T00:21:09.219Z,12.10
2023-04-23T00:21:19.902Z,12.60
2023-04-23T00:21:30.609Z,13.00
2023-04-23T00:21:41.294Z,12.90
2023-04-23T00:21:53.469Z,12.30
2023-04-23T00:22:04.221Z,11.70
2023-04-23T00:22:14.913Z,11.90
2023-04-23T00:22:25.658Z,13.20
2023-04-23T00:22:36.338Z,13.40
2023-04-23T00:22:48.573Z,13.00
2023-04-23T00:22:59.308Z,13.10
2023-04-23T00:23:11.717Z,13.30
2023-04-23T00:23:24.117Z,13.20
2023-04-23T00:23:34.848Z,12.90
2023-04-23T00:23:47.029Z,13.10
2023-04-23T00:23:57.755Z,12.90
2023-04-23T00:24:08.472Z,13.30
2023-04-23T00:24:19.150Z,13.50
2023-04-23T00:24:29.851Z,13.80
2023-04-23T00:24:40.797Z,13.70
2023-04-23T00:24:51.585Z,13.70
2023-04-23T00:25:03.307Z,14.60
2023-04-23T00:25:14.003Z,15.00
2023-04-23T00:25:27.179Z,14.90
2023-04-23T00:25:37.878Z,14.30
2023-04-23T00:25:50.262Z,14.10
2023-04-23T00:26:00.987Z,13.90
2023-04-23T00:26:12.694Z,13.60
2023-04-23T00:26:23.384Z,13.20
2023-04-23T00:26:34.123Z,13.30
2023-04-23T00:26:45.835Z,13.40
2023-04-23T00:26:56.519Z,13.90
2023-04-23T00:27:07.235Z,14.40
2023-04-23T00:27:18.887Z,14.30
2023-04-23T00:27:31.114Z,13.80
2023-04-23T00:27:43.060Z,14.30
2023-04-23T00:27:55.451Z,13.80
2023-04-23T00:28:06.164Z,13.00
2023-04-23T00:28:19.607Z,13.10
2023-04-23T00:28:32.195Z,13.70
2023-04-23T00:28:44.394Z,13.30
2023-04-23T00:28:55.088Z,12.90
2023-04-23T00:29:08.274Z,13.90
2023-04-23T00:29:19.020Z,14.60
2023-04-23T00:29:30.702Z,14.40
2023-04-23T00:29:41.430Z,14.50
2023-04-23T00:29:53.158Z,15.10
2023-04-23T00:30:05.910Z,15.20
2023-04-23T00:30:18.043Z,14.80
2023-04-23T00:30:29.707Z,14.10
2023-04-23T00:30:41.363Z,14.50
2023-04-23T00:30:53.026Z,14.80
2023-04-23T00:31:03.813Z,15.10
2023-04-23T00:31:14.508Z,15.20
2023-04-23T00:31:27.692Z,14.80
2023-04-23T00:31:38.384Z,15.00
2023-04-23T00:31:49.263Z,14.60
2023-04-23T00:32:01.004Z,15.30
2023-04-23T00:32:11.729Z,14.90
2023-04-23T00:32:23.400Z,15.00
2023-04-23T00:32:35.846Z,14.70
2023-04-23T00:32:47.512Z,14.80
2023-04-23T00:32:58.332Z,15.60
2023-04-23T00:33:10.782Z,15.60
2023-04-23T00:33:21.586Z,16.20
2023-04-23T00:33:32.280Z,15.70
2023-04-23T00:33:44.722Z,15.10
2023-04-23T00:33:55.412Z,15.20
2023-04-23T00:34:06.122Z,15.80
2023-04-23T00:34:16.833Z,15.60
2023-04-23T00:34:27.521Z,14.80
2023-04-23T00:34:40.096Z,14.40
2023-04-23T00:34:53.123Z,15.10
2023-04-23T00:35:03.834Z,15.70
2023-04-23T00:35:14.538Z,16.90
2023-04-23T00:35:25.363Z,18.10
2023-04-23T00:35:36.097Z,17.50
2023-04-23T00:35:48.028Z,16.10
2023-04-23T00:35:58.703Z,14.90
2023-04-23T00:36:10.379Z,14.60
2023-04-23T00:36:21.063Z,14.80
2023-04-23T00:36:33.971Z,14.90
2023-04-23T00:36:44.706Z,15.00
2023-04-23T00:36:56.615Z,15.20
2023-04-23T00:37:07.352Z,14.80
2023-04-23T00:37:19.014Z,15.00
2023-04-23T00:37:29.716Z,14.70
2023-04-23T00:37:41.893Z,14.70
2023-04-23T00:37:54.072Z,14.70
2023-04-23T00:38:05.761Z,15.00
2023-04-23T00:38:16.474Z,15.20
2023-04-23T00:38:29.629Z,15.40
2023-04-23T00:38:41.300Z,15.70
2023-04-23T00:38:51.998Z,16.20
2023-04-23T00:39:02.712Z,16.20
2023-04-23T00:39:13.419Z,16.10
2023-04-23T00:39:25.084Z,16.10
2023-04-23T00:39:37.499Z,16.90
2023-04-23T00:39:48.246Z,16.30
2023-04-23T00:40:00.422Z,15.60
2023-04-23T00:40:12.818Z,14.40
2023-04-23T00:40:26.490Z,14.20
2023-04-23T00:40:37.136Z,14.50
2023-04-23T00:40:47.836Z,15.60
2023-04-23T00:41:01.015Z,15.30
2023-04-23T00:41:11.747Z,15.10
2023-04-23T00:41:22.454Z,14.80
2023-04-23T00:41:33.141Z,15.30
2023-04-23T00:41:43.866Z,15.60
2023-04-23T00:41:54.574Z,15.70
2023-04-23T00:42:05.291Z,14.90
2023-04-23T00:42:15.985Z,14.30
2023-04-23T00:42:29.120Z,14.20
2023-04-23T00:42:39.801Z,14.10
2023-04-23T00:42:51.496Z,14.00
2023-04-23T00:43:03.446Z,14.60
2023-04-23T00:43:14.140Z,15.20
2023-04-23T00:43:27.375Z,15.00
2023-04-23T00:43:39.088Z,14.60
2023-04-23T00:43:49.794Z,14.50
2023-04-23T00:44:02.975Z,14.60
2023-04-23T00:44:13.653Z,14.70
2023-04-23T00:44:24.428Z,14.90
2023-04-23T00:44:37.680Z,15.40
2023-04-23T00:44:48.333Z,15.40
2023-04-23T00:44:59.059Z,15.20
2023-04-23T00:45:09.814Z,14.30
2023-04-23T00:45:21.481Z,14.10
2023-04-23T00:45:33.268Z,14.40
2023-04-23T00:45:44.925Z,14.40
2023-04-23T00:45:56.627Z,14.60
2023-04-23T00:46:07.380Z,14.60
2023-04-23T00:46:19.593Z,14.60
2023-04-23T00:46:31.258Z,14.50
2023-04-23T00:46:41.981Z,14.90
2023-04-23T00:46:52.679Z,15.10
2023-04-23T00:47:04.351Z,15.20
2023-04-23T00:47:16.757Z,15.00
2023-04-23T00:47:29.739Z,15.20
2023-04-23T00:47:40.509Z,15.40
2023-04-23T00:47:52.175Z,15.40
2023-04-23T00:48:02.880Z,15.60
2023-04-23T00:48:13.600Z,16.00
2023-04-23T00:48:26.011Z,16.10
2023-04-23T00:48:37.667Z,15.30
2023-04-23T00:48:48.403Z,15.40
2023-04-23T00:49:00.171Z,15.50
2023-04-23T00:49:12.830Z,15.20
2023-04-23T00:49:25.236Z,15.30
2023-04-23T00:49:35.987Z,14.80
2023-04-23T00:49:47.628Z,15.00
2023-04-23T00:50:00.034Z,15.20
2023-04-23T00:50:10.790Z,15.90
2023-04-23T00:50:22.546Z,15.90
2023-04-23T00:50:34.997Z,16.80
2023-04-23T00:50:48.214Z,17.50
2023-04-23T00:50:59.958Z,16.60
2023-04-23T00:51:12.136Z,15.50
2023-04-23T00:51:24.292Z,15.10
2023-04-23T00:51:37.047Z,15.00
2023-04-23T00:51:48.702Z,15.90
2023-04-23T00:52:01.920Z,16.60
2023-04-23T00:52:12.643Z,17.20
2023-04-23T00:52:24.316Z,16.80
2023-04-23T00:52:36.615Z,17.20
2023-04-23T00:52:47.397Z,16.70
2023-04-23T00:52:59.085Z,15.90
2023-04-23T00:53:11.270Z,15.70
2023-04-23T00:53:21.978Z,15.80
2023-04-23T00:53:34.411Z,16.20
2023-04-23T00:53:47.319Z,16.00
2023-04-23T00:54:00.030Z,16.50
2023-04-23T00:54:11.692Z,16.10
2023-04-23T00:54:23.367Z,16.30
2023-04-23T00:54:34.098Z,16.20
2023-04-23T00:54:44.831Z,17.10
2023-04-23T00:54:56.539Z,16.90
2023-04-23T00:55:09.757Z,17.10
2023-04-23T00:55:20.480Z,17.00
2023-04-23T00:55:32.197Z,16.90
2023-04-23T00:55:43.454Z,16.80
2023-04-23T00:55:54.182Z,16.80
2023-04-23T00:56:04.864Z,16.70
2023-04-23T00:56:15.594Z,16.70
2023-04-23T00:56:26.334Z,17.10
2023-04-23T00:56:37.126Z,17.50
2023-04-23T00:56:49.540Z,18.10
2023-04-23T00:57:02.485Z,17.20
2023-04-23T00:57:14.664Z,17.20
2023-04-23T00:57:26.575Z,17.90
2023-04-23T00:57:38.336Z,18.20
2023-04-23T00:57:49.819Z,18.30
2023-04-23T00:58:00.543Z,18.70
2023-04-23T00:58:11.261Z,18.50
2023-04-23T00:58:21.956Z,18.20
2023-04-23T00:58:32.688Z,17.20
2023-04-23T00:58:45.078Z,16.80
2023-04-23T00:58:56.765Z,17.20
2023-04-23T00:59:07.496Z,17.30
2023-04-23T00:59:18.197Z,17.30
2023-04-23T00:59:28.908Z,17.80
2023-04-23T00:59:39.678Z,17.50
2023-04-23T00:59:51.341Z,17.30
2023-04-23T01:00:02.093Z,17.70
2023-04-23T01:00:12.905Z,17.70
2023-04-23T01:00:23.676Z,17.50
2023-04-23T01:00:36.148Z,16.90
2023-04-23T01:00:47.833Z,16.60
2023-04-23T01:00:59.624Z,17.10
2023-04-23T01:01:11.396Z,16.90
2023-04-23T01:01:22.192Z,16.80
2023-04-23T01:01:33.929Z,17.00
2023-04-23T01:01:44.652Z,17.00
2023-04-23T01:01:55.406Z,16.70
2023-04-23T01:02:07.162Z,16.30
2023-04-23T01:02:18.885Z,16.60
2023-04-23T01:02:29.741Z,16.60
2023-04-23T01:02:41.601Z,17.00
2023-04-23T01:02:52.493Z,17.00
2023-04-23T01:03:04.089Z,17.10
2023-04-23T01:03:14.911Z,16.90
2023-04-23T01:03:25.813Z,16.80
2023-04-23T01:03:37.803Z,16.90
2023-04-23T01:03:48.756Z,16.80
2023-04-23T01:03:59.726Z,16.60
2023-04-23T01:04:11.959Z,15.90
2023-04-23T01:04:23.737Z,15.60
2023-04-23T01:04:35.414Z,15.80
2023-04-23T01:04:46.129Z,16.70
2023-04-23T01:04:56.862Z,17.40
2023-04-23T01:05:09.276Z,17.70
2023-04-23T01:05:21.704Z,17.90
2023-04-23T01:05:34.684Z,17.50
2023-04-23T01:05:45.395Z,17.00
2023-04-23T01:05:56.095Z,17.10
2023-04-23T01:06:06.872Z,16.60
2023-04-23T01:06:17.552Z,16.60
2023-04-23T01:06:28.310Z,16.20
2023-04-23T01:06:40.046Z,16.90
2023-04-23T01:06:50.763Z,18.10
2023-04-23T01:07:02.474Z,18.80
2023-04-23T01:07:13.226Z,18.10
2023-04-23T01:07:23.914Z,17.50
2023-04-23T01:07:37.078Z,16.80
2023-04-23T01:07:49.465Z,17.20
2023-04-23T01:08:01.175Z,17.70
2023-04-23T01:08:11.879Z,18.10
2023-04-23T01:08:25.057Z,17.60
2023-04-23T01:08:37.469Z,18.40
2023-04-23T01:08:48.199Z,18.50
2023-04-23T01:08:59.921Z,17.90
2023-04-23T01:09:10.626Z,17.80
2023-04-23T01:09:22.314Z,17.30
2023-04-23T01:09:34.042Z,17.20
2023-04-23T01:09:44.737Z,17.00
2023-04-23T01:09:57.139Z,17.60
2023-04-23T01:10:07.889Z,17.80
2023-04-23T01:10:20.337Z,18.40
2023-04-23T01:10:31.087Z,18.90
2023-04-23T01:10:41.769Z,19.90
2023-04-23T01:10:53.460Z,19.90
2023-04-23T01:11:04.161Z,19.30
2023-04-23T01:11:14.887Z,18.50
2023-04-23T01:11:25.614Z,18.20
2023-04-23T01:11:37.321Z,17.90
2023-04-23T01:11:48.088Z,18.80
2023-04-23T01:11:59.798Z,19.80
2023-04-23T01:12:10.518Z,21.50
2023-04-23T01:12:22.443Z,21.10
2023-04-23T01:12:33.203Z,20.80
2023-04-23T01:12:43.950Z,20.80
2023-04-23T01:12:56.343Z,20.60
2023-04-23T01:13:07.081Z,20.30
2023-04-23T01:13:18.829Z,20.10
2023-04-23T01:13:31.563Z,19.90
2023-04-23T01:13:42.457Z,19.90
2023-04-23T01:13:54.836Z,20.30
2023-04-23T01:14:06.508Z,21.00
2023-04-23T01:14:17.220Z,21.10
2023-04-23T01:14:29.926Z,21.60
2023-04-23T01:14:43.234Z,21.50
2023-04-23T01:14:54.938Z,21.10
2023-04-23T01:15:07.349Z,21.60
2023-04-23T01:15:20.252Z,22.40
2023-04-23T01:15:30.991Z,23.10
2023-04-23T01:15:42.698Z,22.50
2023-04-23T01:15:55.158Z,22.90
2023-04-23T01:16:06.816Z,21.90
2023-04-23T01:16:17.612Z,21.50
2023-04-23T01:16:31.308Z,21.80
2023-04-23T01:16:43.038Z,22.30
2023-04-23T01:16:53.881Z,22.80
2023-04-23T01:17:07.077Z,23.40
2023-04-23T01:17:17.797Z,22.40
2023-04-23T01:17:29.548Z,22.10
2023-04-23T01:17:41.275Z,23.00
2023-04-23T01:17:53.056Z,23.10
2023-04-23T01:18:04.921Z,22.90
2023-04-23T01:18:15.696Z,22.70
2023-04-23T01:18:26.424Z,22.50
2023-04-23T01:18:37.177Z,23.20
2023-04-23T01:18:47.922Z,23.80
2023-04-23T01:18:58.641Z,23.90
2023-04-23T01:19:10.373Z,23.50
2023-04-23T01:19:22.583Z,24.40
2023-04-23T01:19:34.243Z,24.70
2023-04-23T01:19:44.936Z,25.20
2023-04-23T01:19:57.334Z,25.70
2023-04-23T01:20:09.064Z,25.20
2023-04-23T01:20:19.828Z,25.90
2023-04-23T01:20:32.974Z,25.80
2023-04-23T01:20:44.661Z,25.30
2023-04-23T01:20:55.375Z,25.50
2023-04-23T01:21:06.134Z,26.20
2023-04-23T01:21:18.570Z,26.20
2023-04-23T01:21:29.290Z,25.90
2023-04-23T01:21:40.011Z,25.70
2023-04-23T01:21:50.724Z,25.90
2023-04-23T01:22:02.456Z,26.00
2023-04-23T01:22:13.206Z,26.40
2023-04-23T01:22:23.965Z,27.00
2023-04-23T01:22:34.685Z,28.20
2023-04-23T01:22:45.422Z,27.90
2023-04-23T01:22:57.126Z,27.00
2023-04-23T01:23:08.926Z,26.40
2023-04-23T01:23:22.129Z,26.90
2023-04-23T01:23:32.848Z,27.20
2023-04-23T01:23:45.572Z,27.50
2023-04-23T01:23:56.270Z,27.20
2023-04-23T01:24:07.978Z,27.80
2023-04-23T01:24:20.501Z,29.20
2023-04-23T01:24:32.191Z,28.80
2023-04-23T01:24:43.200Z,28.50
2023-04-23T01:24:54.125Z,28.80
2023-04-23T01:25:04.868Z,29.60
2023-04-23T01:25:15.586Z,29.60
2023-04-23T01:25:27.341Z,29.30
2023-04-23T01:25:38.022Z,28.90
2023-04-23T01:25:48.719Z,29.70
2023-04-23T01:26:01.141Z,29.90
2023-04-23T01:26:13.649Z,31.40
2023-04-23T01:26:26.837Z,32.10
2023-04-23T01:26:38.613Z,32.00
2023-04-23T01:26:49.276Z,33.70
2023-04-23T01:27:00.008Z,35.40
2023-04-23T01:27:10.715Z,36.80
2023-04-23T01:27:22.408Z,37.10
2023-04-23T01:27:33.196Z,37.50
2023-04-23T01:27:44.860Z,38.10
2023-04-23T01:27:56.552Z,37.20
2023-04-23T01:28:07.264Z,37.50
2023-04-23T01:28:19.707Z,36.50
2023-04-23T01:28:32.167Z,38.40
2023-04-23T01:28:45.822Z,38.20
2023-04-23T01:28:56.521Z,39.40
2023-04-23T01:29:08.210Z,39.50
2023-04-23T01:29:18.959Z,39.40
2023-04-23T01:29:29.668Z,38.40
2023-04-23T01:29:42.071Z,39.40
2023-04-23T01:29:52.776Z,39.90
2023-04-23T01:30:06.006Z,39.40
2023-04-23T01:30:16.756Z,39.40
2023-04-23T01:30:27.465Z,39.20
2023-04-23T01:30:38.206Z,40.10
2023-04-23T01:30:48.916Z,40.70
2023-04-23T01:30:59.670Z,40.80
2023-04-23T01:31:11.881Z,41.70
2023-04-23T01:31:23.737Z,42.00
2023-04-23T01:31:35.593Z,43.60
2023-04-23T01:31:46.328Z,45.20
2023-04-23T01:31:57.992Z,45.80
2023-04-23T01:32:08.756Z,44.70
2023-04-23T01:32:19.507Z,43.80
2023-04-23T01:32:31.899Z,43.70
2023-04-23T01:32:45.117Z,43.10
2023-04-23T01:32:55.872Z,43.40
2023-04-23T01:33:06.549Z,44.80
2023-04-23T01:33:17.258Z,44.40
2023-04-23T01:33:28.957Z,43.30
2023-04-23T01:33:40.627Z,42.70
2023-04-23T01:33:51.412Z,42.60
2023-04-23T01:34:04.617Z,43.10
2023-04-23T01:34:15.359Z,43.10
2023-04-23T01:34:26.038Z,44.60
2023-04-23T01:34:38.594Z,45.60
2023-04-23T01:34:49.680Z,46.50
2023-04-23T01:35:01.364Z,46.80
2023-04-23T01:35:15.042Z,47.00
2023-04-23T01:35:25.778Z,47.10
2023-04-23T01:35:37.455Z,47.40
2023-04-23T01:35:48.231Z,46.30
2023-04-23T01:35:59.900Z,45.60
2023-04-23T01:36:10.644Z,45.00
2023-04-23T01:36:23.323Z,45.80
2023-04-23T01:36:35.734Z,47.40
2023-04-23T01:36:48.150Z,47.10
2023-04-23T01:36:58.855Z,47.00
2023-04-23T01:37:09.600Z,47.00
2023-04-23T01:37:22.069Z,46.50
2023-04-23T01:37:32.800Z,47.30
2023-04-23T01:37:46.031Z,48.40
2023-04-23T01:37:57.763Z,48.80
2023-04-23T01:38:08.565Z,47.30
2023-04-23T01:38:19.299Z,46.30
2023-04-23T01:38:31.048Z,47.30
2023-04-23T01:38:42.730Z,47.90
2023-04-23T01:38:55.159Z,48.10
2023-04-23T01:39:07.592Z,49.20
2023-04-23T01:39:19.241Z,50.10
2023-04-23T01:39:30.932Z,48.80
2023-04-23T01:39:44.051Z,48.80
2023-04-23T01:39:56.472Z,49.50
2023-04-23T01:40:09.659Z,49.00
2023-04-23T01:40:22.069Z,49.70
2023-04-23T01:40:32.796Z,49.90
2023-04-23T01:40:43.544Z,49.60
2023-04-23T01:40:55.199Z,50.60
2023-04-23T01:41:06.054Z,51.70
2023-04-23T01:41:16.819Z,51.90
2023-04-23T01:41:29.269Z,52.20
2023-04-23T01:41:40.025Z,50.90
2023-04-23T01:41:50.747Z,51.90
2023-04-23T01:42:03.238Z,51.40
2023-04-23T01:42:14.900Z,52.70
2023-04-23T01:42:25.626Z,52.90
2023-04-23T01:42:36.338Z,53.10
2023-04-23T01:42:48.758Z,53.60
2023-04-23T01:42:59.471Z,53.60
2023-04-23T01:43:10.335Z,52.90
2023-04-23T01:43:21.158Z,52.30
2023-04-23T01:43:33.570Z,52.50
2023-04-23T01:43:45.257Z,52.90
2023-04-23T01:43:57.679Z,53.90
2023-04-23T01:44:10.067Z,54.10
2023-04-23T01:44:23.302Z,54.00
2023-04-23T01:44:34.051Z,52.90
2023-04-23T01:44:47.738Z,54.10
2023-04-23T01:44:59.947Z,53.90
2023-04-23T01:45:10.677Z,55.30
2023-04-23T01:45:22.411Z,55.40
2023-04-23T01:45:34.917Z,55.70
2023-04-23T01:45:47.329Z,54.10
2023-04-23T01:46:00.535Z,54.20
2023-04-23T01:46:11.302Z,54.50
2023-04-23T01:46:23.046Z,55.40
2023-04-23T01:46:35.578Z,55.00
2023-04-23T01:46:46.361Z,55.20
2023-04-23T01:46:58.773Z,54.50
2023-04-23T01:47:09.516Z,54.60
2023-04-23T01:47:21.323Z,55.50
2023-04-23T01:47:33.060Z,56.10
2023-04-23T01:47:43.771Z,56.40
2023-04-23T01:47:55.739Z,55.20
2023-04-23T01:48:06.530Z,56.60
2023-04-23T01:48:19.694Z,56.60
2023-04-23T01:48:30.401Z,55.60
2023-04-23T01:48:42.094Z,54.90
2023-04-23T01:48:52.922Z,55.50
2023-04-23T01:49:03.667Z,55.80
2023-04-23T01:49:14.375Z,55.80
2023-04-23T01:49:25.098Z,56.20
2023-04-23T01:49:35.820Z,55.80
2023-04-23T01:49:46.560Z,55.30
2023-04-23T01:49:59.722Z,55.30
2023-04-23T01:50:11.456Z,55.00
2023-04-23T01:50:22.221Z,55.20
2023-04-23T01:50:35.402Z,54.50
2023-04-23T01:50:46.199Z,55.40
2023-04-23T01:50:56.915Z,54.50
2023-04-23T01:51:07.622Z,54.00
2023-04-23T01:51:19.332Z,53.90
2023-04-23T01:51:30.033Z,54.90
2023-04-23T01:51:40.706Z,56.20
2023-04-23T01:51:52.399Z,57.10
2023-04-23T01:52:05.604Z,56.70
2023-04-23T01:52:16.360Z,56.20
2023-04-23T01:52:27.059Z,55.10
2023-04-23T01:52:38.782Z,56.80
2023-04-23T01:52:49.528Z,56.90
2023-04-23T01:53:00.319Z,57.70
2023-04-23T01:53:11.057Z,57.40
2023-04-23T01:53:23.260Z,58.00
2023-04-23T01:53:35.918Z,55.50
2023-04-23T01:53:48.372Z,56.50
2023-04-23T01:53:59.114Z,58.00
2023-04-23T01:54:09.816Z,58.90
2023-04-23T01:54:21.511Z,58.60
2023-04-23T01:54:33.200Z,59.00
2023-04-23T01:54:45.408Z,58.40
2023-04-23T01:54:56.131Z,58.30
2023-04-23T01:55:08.531Z,58.30
2023-04-23T01:55:21.229Z,57.60
2023-04-23T01:55:31.921Z,56.80
2023-04-23T01:55:43.590Z,56.10
2023-04-23T01:55:55.272Z,54.50
2023-04-23T01:56:06.961Z,55.80
2023-04-23T01:56:17.680Z,57.90
2023-04-23T01:56:29.380Z,59.50
2023-04-23T01:56:42.292Z,58.80
2023-04-23T01:56:53.004Z,59.20
2023-04-23T01:57:03.705Z,59.50
2023-04-23T01:57:16.115Z,58.90
2023-04-23T01:57:26.839Z,58.50
2023-04-23T01:57:38.533Z,59.20
2023-04-23T01:57:49.286Z,59.30
2023-04-23T01:58:02.430Z,59.30
2023-04-23T01:58:13.155Z,59.80
2023-04-23T01:58:25.553Z,59.80
2023-04-23T01:58:36.263Z,59.60
2023-04-23T01:58:46.977Z,59.00
2023-04-23T01:58:57.752Z,58.80
2023-04-23T01:59:08.476Z,57.60
2023-04-23T01:59:19.179Z,57.20
2023-04-23T01:59:29.868Z,57.30
2023-04-23T01:59:40.553Z,58.30
2023-04-23T01:59:53.740Z,57.40
2023-04-23T02:00:05.542Z,57.80
2023-04-23T02:00:17.282Z,57.80
2023-04-23T02:00:30.163Z,58.20
2023-04-23T02:00:40.856Z,58.60
2023-04-23T02:00:52.532Z,58.30
2023-04-23T02:01:03.206Z,58.80
2023-04-23T02:01:13.988Z,59.90
2023-04-23T02:01:26.755Z,60.20
2023-04-23T02:01:39.189Z,61.10
2023-04-23T02:01:49.928Z,62.60
2023-04-23T02:02:01.681Z,62.80
2023-04-23T02:02:13.721Z,62.70
2023-04-23T02:02:24.566Z,61.50
2023-04-23T02:02:36.611Z,62.20
2023-04-23T02:02:47.494Z,61.80
2023-04-23T02:02:59.374Z,62.00
2023-04-23T02:03:11.909Z,61.60
2023-04-23T02:03:23.849Z,61.80
2023-04-23T02:03:34.683Z,63.30
2023-04-23T02:03:45.555Z,64.10
2023-04-23T02:03:57.319Z,63.40
2023-04-23T02:04:09.803Z,63.40
2023-04-23T02:04:23.141Z,64.10
2023-04-23T02:04:34.840Z,63.90
2023-04-23T02:04:46.584Z,63.90
2023-04-23T02:04:57.327Z,63.70
2023-04-23T02:05:11.022Z,63.20
2023-04-23T02:05:23.256Z,64.20
2023-04-23T02:05:36.445Z,65.00
2023-04-23T02:05:48.604Z,64.60
2023-04-23T02:06:00.288Z,65.70
2023-04-23T02:06:12.211Z,63.90
2023-04-23T02:06:24.659Z,62.80
2023-04-23T02:06:37.694Z,63.70
2023-04-23T02:06:50.144Z,63.80
2023-04-23T02:07:00.840Z,63.80
2023-04-23T02:07:11.558Z,64.90
2023-04-23T02:07:24.725Z,64.80
2023-04-23T02:07:37.633Z,64.10
2023-04-23T02:07:48.321Z,63.00
2023-04-23T02:07:59.056Z,62.50
2023-04-23T02:08:09.771Z,63.80
2023-04-23T02:08:21.475Z,64.10
2023-04-23T02:08:32.202Z,63.60
2023-04-23T02:08:44.649Z,63.30
2023-04-23T02:08:55.334Z,64.60
2023-04-23T02:09:07.058Z,65.10
2023-04-23T02:09:17.746Z,63.00
2023-04-23T02:09:28.503Z,63.10
2023-04-23T02:09:39.179Z,63.30
2023-04-23T02:09:50.826Z,64.80
2023-04-23T02:10:04.065Z,65.20
2023-04-23T02:10:14.760Z,64.60
2023-04-23T02:10:26.230Z,63.90
2023-04-23T02:10:37.941Z,63.30
2023-04-23T02:10:50.369Z,64.80
2023-04-23T02:11:02.741Z,64.70
2023-04-23T02:11:13.507Z,64.90
2023-04-23T02:11:25.203Z,63.60
2023-04-23T02:11:35.909Z,63.60
2023-04-23T02:11:48.304Z,62.60
2023-04-23T02:11:59.034Z,63.50
2023-04-23T02:12:11.494Z,62.40
2023-04-23T02:12:22.186Z,64.20
2023-04-23T02:12:33.885Z,63.00
2023-04-23T02:12:46.301Z,62.10
2023-04-23T02:12:57.005Z,60.80
2023-04-23T02:13:08.714Z,61.10
2023-04-23T02:13:19.472Z,61.80
2023-04-23T02:13:30.154Z,62.40
2023-04-23T02:13:40.874Z,62.40
2023-04-23T02:13:51.576Z,62.00
2023-04-23T02:14:03.244Z,61.60
2023-04-23T02:14:15.641Z,61.80
2023-04-23T02:14:26.328Z,61.90
2023-04-23T02:14:38.007Z,62.60
2023-04-23T02:14:48.714Z,63.80
2023-04-23T02:14:59.487Z,63.80
2023-04-23T02:15:10.166Z,62.70
2023-04-23T02:15:23.380Z,61.10
2023-04-23T02:15:36.561Z,60.60
2023-04-23T02:15:47.308Z,62.40
2023-04-23T02:15:58.981Z,63.10
2023-04-23T02:16:09.730Z,64.00
2023-04-23T02:16:20.414Z,63.40
2023-04-23T02:16:32.958Z,63.00
2023-04-23T02:16:45.148Z,62.00
2023-04-23T02:16:55.862Z,61.90
2023-04-23T02:17:08.305Z,61.70
2023-04-23T02:17:20.006Z,62.10
2023-04-23T02:17:32.439Z,63.10
2023-04-23T02:17:45.125Z,62.60
2023-04-23T02:17:57.501Z,62.90
2023-04-23T02:18:08.211Z,62.80
2023-04-23T02:18:19.876Z,61.40
2023-04-23T02:18:30.573Z,61.50
2023-04-23T02:18:42.754Z,62.10
2023-04-23T02:18:53.441Z,62.10
2023-04-23T02:19:05.117Z,61.10
2023-04-23T02:19:17.585Z,60.80
2023-04-23T02:19:31.256Z,61.90
2023-04-23T02:19:41.973Z,61.60
2023-04-23T02:19:53.659Z,61.10
2023-04-23T02:20:04.359Z,60.60
2023-04-23T02:20:15.060Z,61.20
2023-04-23T02:20:25.786Z,61.50
2023-04-23T02:20:36.472Z,61.50
2023-04-23T02:20:48.685Z,61.50
2023-04-23T02:20:59.401Z,60.90
2023-04-23T02:21:10.153Z,60.70
2023-04-23T02:21:21.858Z,59.60
2023-04-23T02:21:33.541Z,58.90
2023-04-23T02:21:45.972Z,59.80
2023-04-23T02:21:56.743Z,59.90
2023-04-23T02:22:08.392Z,59.80
2023-04-23T02:22:19.137Z,61.30
2023-04-23T02:22:29.829Z,62.10
2023-04-23T02:22:40.582Z,61.30
2023-04-23T02:22:53.523Z,58.80
2023-04-23T02:23:06.689Z,59.40
2023-04-23T02:23:17.374Z,60.10
2023-04-23T02:23:28.066Z,59.20
2023-04-23T02:23:38.836Z,58.90
2023-04-23T02:23:51.251Z,58.50
2023-04-23T02:24:01.973Z,59.00
2023-04-23T02:24:14.109Z,59.30
2023-04-23T02:24:24.801Z,59.10
2023-04-23T02:24:36.508Z,60.30
2023-04-23T02:24:49.430Z,59.50
2023-04-23T02:25:01.854Z,60.10
2023-04-23T02:25:12.610Z,59.30
2023-04-23T02:25:25.536Z,59.60
2023-04-23T02:25:37.206Z,61.00
2023-04-23T02:25:49.376Z,61.40
2023-04-23T02:26:01.788Z,61.30
2023-04-23T02:26:14.680Z,63.10
2023-04-23T02:26:27.097Z,62.20
2023-04-23T02:26:38.791Z,61.50
2023-04-23T02:26:50.512Z,59.70
2023-04-23T02:27:02.898Z,60.00
2023-04-23T02:27:15.342Z,60.20
2023-04-23T02:27:27.775Z,60.90
2023-04-23T02:27:39.450Z,60.30
2023-04-23T02:27:51.276Z,60.80
2023-04-23T02:28:03.669Z,61.40
2023-04-23T02:28:14.369Z,60.20
2023-04-23T02:28:26.036Z,59.70
2023-04-23T02:28:36.745Z,61.20
2023-04-23T02:28:47.468Z,63.10
2023-04-23T02:28:58.167Z,64.40